createdAt,value
2018-01-21T00:01:49.542Z,88.60
2018-01-21T00:04:16.395Z,88.60
2018-01-21T00:06:43.258Z,87.90
2018-01-21T00:09:10.213Z,88.30
2018-01-21T00:11:37.066Z,88.20
2018-01-21T00:14:03.958Z,87.90
2018-01-21T00:16:30.825Z,88.10
2018-01-21T00:18:57.699Z,87.90
2018-01-21T00:21:24.536Z,88.50
2018-01-21T00:23:51.389Z,88.00
2018-01-21T00:26:18.978Z,87.20
2018-01-21T00:28:45.934Z,87.10
2018-01-21T00:31:12.747Z,86.90
2018-01-21T00:33:39.587Z,87.60
2018-01-21T00:36:07.202Z,88.20
2018-01-21T00:38:34.077Z,88.20
2018-01-21T00:41:01.685Z,88.90
2018-01-21T00:43:28.630Z,88.70
2018-01-21T00:45:55.520Z,88.50
2018-01-21T00:48:23.181Z,88.30
2018-01-21T00:50:50.076Z,87.90
2018-01-21T00:53:16.925Z,88.50
2018-01-21T00:55:43.905Z,88.90
2018-01-21T00:58:11.601Z,88.00
2018-01-21T01:00:38.466Z,87.90
2018-01-21T01:03:05.318Z,88.40
2018-01-21T01:05:32.160Z,87.80
2018-01-21T01:07:59.045Z,87.80
2018-01-21T01:10:25.910Z,88.00
2018-01-21T01:12:52.741Z,88.10
2018-01-21T01:15:19.590Z,88.10
2018-01-21T01:17:47.227Z,88.00
2018-01-21T01:20:14.103Z,88.00
2018-01-21T01:22:41.086Z,88.30
2018-01-21T01:25:07.941Z,88.10
2018-01-21T01:27:34.821Z,87.30
2018-01-21T01:30:02.450Z,86.90
2018-01-21T01:32:32.054Z,86.90
2018-01-21T01:34:58.917Z,87.40
2018-01-21T01:37:25.802Z,87.60
2018-01-21T01:39:52.665Z,87.80
2018-01-21T01:42:19.502Z,87.70
2018-01-21T01:44:46.373Z,87.30
2018-01-21T01:47:13.190Z,87.40
2018-01-21T01:49:40.098Z,87.20
2018-01-21T01:52:07.690Z,87.20
2018-01-21T01:54:34.513Z,87.10
2018-01-21T01:57:01.378Z,87.30
2018-01-21T01:59:28.246Z,86.30
2018-01-21T02:01:55.084Z,85.90
2018-01-21T02:04:22.734Z,86.10
2018-01-21T02:06:49.590Z,86.10
2018-01-21T02:09:16.464Z,86.80
2018-01-21T02:11:43.406Z,86.60
2018-01-21T02:14:10.258Z,86.90
2018-01-21T02:16:37.078Z,86.70
2018-01-21T02:19:04.063Z,87.20
2018-01-21T02:21:31.674Z,86.90
2018-01-21T02:23:58.510Z,86.70
2018-01-21T02:26:25.385Z,86.90
2018-01-21T02:28:52.217Z,87.30
2018-01-21T02:31:19.106Z,87.60
2018-01-21T02:33:45.946Z,87.30
2018-01-21T02:36:12.798Z,86.90
2018-01-21T02:38:40.430Z,86.70
2018-01-21T02:41:07.248Z,86.70
2018-01-21T02:43:34.121Z,86.70
2018-01-21T02:46:01.727Z,86.60
2018-01-21T02:48:28.632Z,86.50
2018-01-21T02:50:55.530Z,86.90
2018-01-21T02:53:22.401Z,87.50
2018-01-21T02:55:49.989Z,87.00
2018-01-21T02:58:17.623Z,86.40
2018-01-21T03:00:45.218Z,86.40
2018-01-21T03:03:12.086Z,86.40
2018-01-21T03:05:38.953Z,86.80
2018-01-21T03:08:05.813Z,86.90
2018-01-21T03:10:32.638Z,86.90
2018-01-21T03:12:59.514Z,87.00
2018-01-21T03:15:27.114Z,87.00
2018-01-21T03:17:53.997Z,87.00
2018-01-21T03:20:21.634Z,87.80
2018-01-21T03:22:48.486Z,87.70
2018-01-21T03:25:15.302Z,87.40
2018-01-21T03:27:43.042Z,87.20
2018-01-21T03:30:09.909Z,87.20
2018-01-21T03:32:36.747Z,87.00
2018-01-21T03:35:03.622Z,87.10
2018-01-21T03:37:30.473Z,86.80
2018-01-21T03:39:57.357Z,87.20
2018-01-21T03:42:24.926Z,88.60
2018-01-21T03:44:51.807Z,88.50
2018-01-21T03:47:18.685Z,88.00
2018-01-21T03:49:45.523Z,87.90
2018-01-21T03:52:12.402Z,88.30
2018-01-21T03:54:39.248Z,88.60
2018-01-21T03:57:06.098Z,89.10
2018-01-21T03:59:32.941Z,88.30
2018-01-21T04:01:59.782Z,88.50
2018-01-21T04:04:26.653Z,88.70
2018-01-21T04:06:53.470Z,88.50
2018-01-21T04:09:20.330Z,88.50
2018-01-21T04:11:47.193Z,88.30
2018-01-21T04:14:14.045Z,87.80
2018-01-21T04:16:41.727Z,88.30
2018-01-21T04:19:09.346Z,89.10
2018-01-21T04:21:36.201Z,89.10
2018-01-21T04:24:03.071Z,89.50
2018-01-21T04:26:30.651Z,88.60
2018-01-21T04:28:57.568Z,88.60
2018-01-21T04:31:25.145Z,88.10
2018-01-21T04:33:52.010Z,88.00
2018-01-21T04:36:18.902Z,88.00
2018-01-21T04:38:46.565Z,88.30
2018-01-21T04:41:13.416Z,88.30
2018-01-21T04:43:41.057Z,87.50
2018-01-21T04:46:07.904Z,87.50
2018-01-21T04:48:34.849Z,88.00
2018-01-21T04:51:01.706Z,88.70
2018-01-21T04:53:29.334Z,89.20
2018-01-21T04:55:56.209Z,89.00
2018-01-21T04:58:23.141Z,88.90
2018-01-21T05:00:50.035Z,88.90
2018-01-21T05:03:16.878Z,89.20
2018-01-21T05:05:43.758Z,88.50
2018-01-21T05:08:10.649Z,88.30
2018-01-21T05:10:37.539Z,88.80
2018-01-21T05:13:04.397Z,88.60
2018-01-21T05:15:31.368Z,88.40
2018-01-21T05:17:58.184Z,88.30
2018-01-21T05:20:25.023Z,88.60
2018-01-21T05:22:51.881Z,89.20
2018-01-21T05:25:18.826Z,88.50
2018-01-21T05:27:46.485Z,88.40
2018-01-21T05:30:13.321Z,88.40
2018-01-21T05:32:40.166Z,88.30
2018-01-21T05:35:07.026Z,88.70
2018-01-21T05:37:34.688Z,88.80
2018-01-21T05:40:02.346Z,88.50
2018-01-21T05:42:29.953Z,88.50
2018-01-21T05:44:56.818Z,88.30
2018-01-21T05:47:23.660Z,89.10
2018-01-21T05:49:50.504Z,89.00
2018-01-21T05:52:17.320Z,88.80
2018-01-21T05:54:44.185Z,88.90
2018-01-21T05:57:11.047Z,89.10
2018-01-21T05:59:37.877Z,88.70
2018-01-21T06:02:04.754Z,89.10
2018-01-21T06:04:31.609Z,89.20
2018-01-21T06:06:58.531Z,89.50
2018-01-21T06:09:25.554Z,89.10
2018-01-21T06:11:52.454Z,89.60
2018-01-21T06:14:19.349Z,89.20
2018-01-21T06:16:46.620Z,89.10
2018-01-21T06:19:13.609Z,89.10
2018-01-21T06:21:40.709Z,89.10
2018-01-21T06:24:07.610Z,90.10
2018-01-21T06:26:34.451Z,90.00
2018-01-21T06:29:01.502Z,90.00
2018-01-21T06:31:29.176Z,89.80
2018-01-21T06:33:56.789Z,89.60
2018-01-21T06:36:24.366Z,89.50
2018-01-21T06:38:51.346Z,89.50
2018-01-21T06:41:18.163Z,89.30
2018-01-21T06:43:45.038Z,89.10
2018-01-21T06:46:11.893Z,90.10
2018-01-21T06:48:38.830Z,89.90
2018-01-21T06:51:05.681Z,90.00
2018-01-21T06:53:32.541Z,89.90
2018-01-21T06:55:59.409Z,89.60
2018-01-21T06:58:26.346Z,89.30
2018-01-21T07:00:53.197Z,89.80
2018-01-21T07:03:20.047Z,89.80
2018-01-21T07:05:46.931Z,90.10
2018-01-21T07:08:14.042Z,90.00
2018-01-21T07:10:41.194Z,90.40
2018-01-21T07:13:08.119Z,90.40
2018-01-21T07:15:34.957Z,90.30
2018-01-21T07:18:02.613Z,90.30
2018-01-21T07:20:30.201Z,90.40
2018-01-21T07:22:57.063Z,90.40
2018-01-21T07:25:23.937Z,90.30
2018-01-21T07:27:51.912Z,90.10
2018-01-21T07:30:19.502Z,90.10
2018-01-21T07:32:47.149Z,90.40
2018-01-21T07:35:14.046Z,90.40
2018-01-21T07:37:41.937Z,89.90
2018-01-21T07:40:08.966Z,89.90
2018-01-21T07:42:35.817Z,89.80
2018-01-21T07:45:02.918Z,90.00
2018-01-21T07:47:29.958Z,89.30
2018-01-21T07:49:57.514Z,89.50
2018-01-21T07:52:25.102Z,89.40
2018-01-21T07:54:51.969Z,89.30
2018-01-21T07:57:18.791Z,88.70
2018-01-21T07:59:45.679Z,88.20
2018-01-21T08:02:13.277Z,88.60
2018-01-21T08:04:40.495Z,88.60
2018-01-21T08:07:07.566Z,89.00
2018-01-21T08:09:34.470Z,89.30
2018-01-21T08:12:01.314Z,89.60
2018-01-21T08:14:28.158Z,88.80
2018-01-21T08:16:55.010Z,89.00
2018-01-21T08:19:21.942Z,89.20
2018-01-21T08:21:48.828Z,90.00
2018-01-21T08:24:16.395Z,89.50
2018-01-21T08:26:43.959Z,90.00
2018-01-21T08:29:10.895Z,89.20
2018-01-21T08:31:37.734Z,88.90
2018-01-21T08:34:10.714Z,88.60
2018-01-21T08:36:44.301Z,87.80
2018-01-21T08:39:17.925Z,87.80
2018-01-21T08:41:45.554Z,87.80
2018-01-21T08:44:13.236Z,87.10
2018-01-21T08:46:40.154Z,86.90
2018-01-21T08:49:07.126Z,85.80
2018-01-21T08:51:34.696Z,84.90
2018-01-21T08:54:01.626Z,84.80
2018-01-21T08:56:28.482Z,84.40
2018-01-21T08:58:56.105Z,83.20
2018-01-21T09:01:22.969Z,83.10
2018-01-21T09:03:50.578Z,83.50
2018-01-21T09:06:17.493Z,83.40
2018-01-21T09:08:45.278Z,81.80
2018-01-21T09:11:12.171Z,81.70
2018-01-21T09:13:39.030Z,81.20
2018-01-21T09:16:06.625Z,80.40
2018-01-21T09:18:33.510Z,80.40
2018-01-21T09:21:00.378Z,80.60
2018-01-21T09:23:27.230Z,79.70
2018-01-21T09:25:54.801Z,78.60
2018-01-21T09:28:22.454Z,79.50
2018-01-21T09:30:50.019Z,78.90
2018-01-21T09:33:17.558Z,79.00
2018-01-21T09:35:44.402Z,78.80
2018-01-21T09:38:12.082Z,77.80
2018-01-21T09:40:38.893Z,77.80
2018-01-21T09:43:05.770Z,77.50
2018-01-21T09:45:32.634Z,76.60
2018-01-21T09:47:59.702Z,76.90
2018-01-21T09:50:26.594Z,76.20
2018-01-21T09:52:54.186Z,76.40
2018-01-21T09:55:21.069Z,76.40
2018-01-21T09:57:48.754Z,75.80
2018-01-21T10:00:16.342Z,76.60
2018-01-21T10:02:43.210Z,76.50
2018-01-21T10:05:10.814Z,75.60
2018-01-21T10:07:38.465Z,75.00
2018-01-21T10:10:06.134Z,75.00
2018-01-21T10:12:33.755Z,74.70
2018-01-21T10:15:00.642Z,74.60
2018-01-21T10:17:27.605Z,73.80
2018-01-21T10:19:54.521Z,71.30
2018-01-21T10:22:22.110Z,70.70
2018-01-21T10:24:48.982Z,70.60
2018-01-21T10:27:15.921Z,66.60
2018-01-21T10:29:42.825Z,64.30
2018-01-21T10:32:09.930Z,64.80
2018-01-21T10:34:36.762Z,65.90
2018-01-21T10:37:03.594Z,66.40
2018-01-21T10:39:30.565Z,65.10
2018-01-21T10:41:57.414Z,64.70
2018-01-21T10:44:24.270Z,62.90
2018-01-21T10:46:51.151Z,58.40
2018-01-21T10:49:18.821Z,51.60
2018-01-21T10:51:46.398Z,48.90
2018-01-21T10:54:13.241Z,48.80
2018-01-21T10:56:40.159Z,48.10
2018-01-21T10:59:07.830Z,44.90
2018-01-21T11:01:34.663Z,44.80
2018-01-21T11:04:01.542Z,46.00
2018-01-21T11:06:28.369Z,45.60
2018-01-21T11:08:55.247Z,49.60
2018-01-21T11:11:22.286Z,50.20
2018-01-21T11:13:49.122Z,49.70
2018-01-21T11:16:15.966Z,49.70
2018-01-21T11:18:42.965Z,48.10
2018-01-21T11:21:10.561Z,44.30
2018-01-21T11:23:37.390Z,44.30
2018-01-21T11:26:04.281Z,46.00
2018-01-21T11:28:31.133Z,46.50
2018-01-21T11:30:57.997Z,41.60
2018-01-21T11:33:25.578Z,43.70
2018-01-21T11:35:52.450Z,43.70
2018-01-21T11:38:19.443Z,41.60
2018-01-21T11:40:47.037Z,30.60
2018-01-21T11:43:13.909Z,30.50
2018-01-21T11:45:40.738Z,31.10
2018-01-21T11:48:07.597Z,28.50
2018-01-21T11:50:34.506Z,27.80
2018-01-21T11:53:01.354Z,26.90
2018-01-21T11:55:28.182Z,26.90
2018-01-21T11:57:55.234Z,26.60
2018-01-21T12:00:22.070Z,27.30
2018-01-21T12:02:48.945Z,27.40
2018-01-21T12:05:15.781Z,26.10
2018-01-21T12:07:43.733Z,27.30
2018-01-21T12:10:10.630Z,28.70
2018-01-21T12:12:37.466Z,27.70
2018-01-21T12:15:04.286Z,27.80
2018-01-21T12:17:31.219Z,27.30
2018-01-21T12:19:58.047Z,27.80
2018-01-21T12:22:24.927Z,26.60
2018-01-21T12:24:51.784Z,26.30
2018-01-21T12:27:18.758Z,26.30
2018-01-21T12:29:46.368Z,26.30
2018-01-21T12:32:13.225Z,25.80
2018-01-21T12:34:40.049Z,26.00
2018-01-21T12:37:06.936Z,27.40
2018-01-21T12:39:33.853Z,31.10
2018-01-21T12:42:00.717Z,31.30
2018-01-21T12:44:27.549Z,33.30
2018-01-21T12:46:54.413Z,33.30
2018-01-21T12:49:22.065Z,36.60
2018-01-21T12:51:49.669Z,37.10
2018-01-21T12:54:16.549Z,37.10
2018-01-21T12:56:43.412Z,38.70
2018-01-21T12:59:10.343Z,39.60
2018-01-21T13:01:37.189Z,39.10
2018-01-21T13:04:04.774Z,33.60
2018-01-21T13:06:32.341Z,33.60
2018-01-21T13:08:59.984Z,30.80
2018-01-21T13:11:26.826Z,30.70
2018-01-21T13:13:54.421Z,32.90
2018-01-21T13:16:21.256Z,32.90
2018-01-21T13:18:48.165Z,35.50
2018-01-21T13:21:15.790Z,37.90
2018-01-21T13:23:42.641Z,37.90
2018-01-21T13:26:09.516Z,37.50
2018-01-21T13:28:37.162Z,38.10
2018-01-21T13:31:04.042Z,38.10
2018-01-21T13:33:31.665Z,41.20
2018-01-21T13:35:58.510Z,41.20
2018-01-21T13:38:25.585Z,42.00
2018-01-21T13:40:52.426Z,42.90
2018-01-21T13:43:20.034Z,42.30
2018-01-21T13:45:46.934Z,42.30
2018-01-21T13:48:13.877Z,44.60
2018-01-21T13:50:40.758Z,44.20
2018-01-21T13:53:07.687Z,44.70
2018-01-21T13:55:34.546Z,43.70
2018-01-21T13:58:01.429Z,44.40
2018-01-21T14:00:28.614Z,45.00
2018-01-21T14:02:56.185Z,46.00
2018-01-21T14:05:23.037Z,46.00
2018-01-21T14:07:49.993Z,46.10
2018-01-21T14:10:16.843Z,45.70
2018-01-21T14:12:43.709Z,47.00
2018-01-21T14:15:11.310Z,47.20
2018-01-21T14:17:38.952Z,47.50
2018-01-21T14:20:05.817Z,47.50
2018-01-21T14:22:32.688Z,48.80
2018-01-21T14:24:59.565Z,48.00
2018-01-21T14:27:26.520Z,49.40
2018-01-21T14:29:53.389Z,49.90
2018-01-21T14:32:20.249Z,50.20
2018-01-21T14:34:47.103Z,49.50
2018-01-21T14:37:14.019Z,50.40
2018-01-21T14:39:40.936Z,51.50
2018-01-21T14:42:08.609Z,50.30
2018-01-21T14:44:36.245Z,51.10
2018-01-21T14:47:03.106Z,51.10
2018-01-21T14:49:30.749Z,52.00
2018-01-21T14:51:57.657Z,51.90
2018-01-21T14:54:24.526Z,52.50
2018-01-21T14:56:51.449Z,52.70
2018-01-21T14:59:18.337Z,52.80
2018-01-21T15:01:45.221Z,52.80
2018-01-21T15:04:12.083Z,53.60
2018-01-21T15:06:38.990Z,53.20
2018-01-21T15:09:06.669Z,52.30
2018-01-21T15:11:33.561Z,52.30
2018-01-21T15:14:00.430Z,52.60
2018-01-21T15:16:27.326Z,53.80
2018-01-21T15:18:54.210Z,54.50
2018-01-21T15:21:21.064Z,54.90
2018-01-21T15:23:49.491Z,54.00
2018-01-21T15:26:16.349Z,54.00
2018-01-21T15:28:43.217Z,54.80
2018-01-21T15:31:10.856Z,54.00
2018-01-21T15:33:37.705Z,54.00
2018-01-21T15:36:04.537Z,53.00
2018-01-21T15:38:31.445Z,53.20
2018-01-21T15:40:58.301Z,53.50
2018-01-21T15:43:25.170Z,54.10
2018-01-21T15:45:52.831Z,55.10
2018-01-21T15:48:19.906Z,55.10
2018-01-21T15:50:46.745Z,54.00
2018-01-21T15:53:15.026Z,54.70
2018-01-21T15:55:42.209Z,55.00
2018-01-21T15:58:09.314Z,54.50
2018-01-21T16:00:44.998Z,54.50
2018-01-21T16:03:12.862Z,55.40
2018-01-21T16:05:40.178Z,55.40
2018-01-21T16:08:07.486Z,55.20
2018-01-21T16:10:34.463Z,55.70
2018-01-21T16:13:01.381Z,55.70
2018-01-21T16:15:28.594Z,56.30
2018-01-21T16:17:55.998Z,56.30
2018-01-21T16:20:22.895Z,57.20
2018-01-21T16:22:50.535Z,56.90
2018-01-21T16:25:17.694Z,56.90
2018-01-21T16:27:44.713Z,57.00
2018-01-21T16:30:12.529Z,57.30
2018-01-21T16:32:39.542Z,57.30
2018-01-21T16:35:07.123Z,57.20
2018-01-21T16:37:46.350Z,57.30
2018-01-21T16:40:14.180Z,58.30
2018-01-21T16:42:41.631Z,57.70
2018-01-21T16:45:08.717Z,57.80
2018-01-21T16:47:35.699Z,57.80
2018-01-21T16:50:02.666Z,57.80
2018-01-21T16:52:29.637Z,58.00
2018-01-21T16:54:56.570Z,57.90
2018-01-21T16:57:34.970Z,58.40
2018-01-21T17:00:01.995Z,58.30
2018-01-21T17:02:28.900Z,58.60
2018-01-21T17:04:55.899Z,58.70
2018-01-21T17:07:22.974Z,59.10
2018-01-21T17:09:49.936Z,59.20
2018-01-21T17:12:16.966Z,59.40
2018-01-21T17:14:43.901Z,59.30
2018-01-21T17:17:10.812Z,59.70
2018-01-21T17:19:37.876Z,59.80
2018-01-21T17:22:04.838Z,59.50
2018-01-21T17:24:31.782Z,60.00
2018-01-21T17:26:58.693Z,61.40
2018-01-21T17:29:25.674Z,61.50
2018-01-21T17:31:52.686Z,62.10
2018-01-21T17:34:19.723Z,63.50
2018-01-21T17:36:46.771Z,64.40
2018-01-21T17:39:13.869Z,64.70
2018-01-21T17:41:40.950Z,65.80
2018-01-21T17:44:08.811Z,65.60
2018-01-21T17:46:35.914Z,66.40
2018-01-21T17:49:02.979Z,67.30
2018-01-21T17:51:30.063Z,67.40
2018-01-21T17:53:57.215Z,66.50
2018-01-21T17:56:24.187Z,69.70
2018-01-21T17:58:51.140Z,68.90
2018-01-21T18:01:18.070Z,69.20
2018-01-21T18:03:44.948Z,70.10
2018-01-21T18:06:11.838Z,70.50
2018-01-21T18:08:39.683Z,69.70
2018-01-21T18:11:06.722Z,69.70
2018-01-21T18:13:33.674Z,70.10
2018-01-21T18:16:00.670Z,70.70
2018-01-21T18:18:27.593Z,71.60
2018-01-21T18:20:55.459Z,70.90
2018-01-21T18:23:22.534Z,70.90
2018-01-21T18:25:49.502Z,71.50
2018-01-21T18:28:16.675Z,70.40
2018-01-21T18:30:43.727Z,72.10
2018-01-21T18:33:11.472Z,70.60
2018-01-21T18:35:38.330Z,71.40
2018-01-21T18:38:06.050Z,71.80
2018-01-21T18:40:33.161Z,71.80
2018-01-21T18:43:00.825Z,72.80
2018-01-21T18:45:27.748Z,72.70
2018-01-21T18:47:54.881Z,70.30
2018-01-21T18:50:22.032Z,71.40
2018-01-21T18:52:49.915Z,71.20
2018-01-21T18:55:16.976Z,71.10
2018-01-21T18:57:44.279Z,72.40
2018-01-21T19:00:12.003Z,72.20
2018-01-21T19:02:39.030Z,71.50
2018-01-21T19:05:05.954Z,71.40
2018-01-21T19:07:33.057Z,72.30
2018-01-21T19:10:00.097Z,73.30
2018-01-21T19:12:27.189Z,74.90
2018-01-21T19:14:54.241Z,74.30
2018-01-21T19:17:21.446Z,73.10
2018-01-21T19:19:49.166Z,72.70
2018-01-21T19:22:16.787Z,73.60
2018-01-21T19:24:43.878Z,73.60
2018-01-21T19:27:11.551Z,73.90
2018-01-21T19:29:38.470Z,73.80
2018-01-21T19:32:07.465Z,74.60
2018-01-21T19:34:34.467Z,74.40
2018-01-21T19:37:01.498Z,75.30
2018-01-21T19:39:35.486Z,74.90
2018-01-21T19:42:07.517Z,73.60
2018-01-21T19:44:34.710Z,74.10
2018-01-21T19:47:01.735Z,75.50
2018-01-21T19:49:28.819Z,75.20
2018-01-21T19:51:55.931Z,75.00
2018-01-21T19:54:23.126Z,73.80
2018-01-21T19:56:50.181Z,73.80
2018-01-21T19:59:18.086Z,74.90
2018-01-21T20:01:45.083Z,74.90
2018-01-21T20:04:12.684Z,73.80
2018-01-21T20:06:39.554Z,73.70
2018-01-21T20:09:06.989Z,76.00
2018-01-21T20:11:33.885Z,74.40
2018-01-21T20:14:01.721Z,75.90
2018-01-21T20:16:28.841Z,75.90
2018-01-21T20:18:55.752Z,75.10
2018-01-21T20:21:23.382Z,74.90
2018-01-21T20:23:50.527Z,74.80
2018-01-21T20:26:17.441Z,74.60
2018-01-21T20:28:44.344Z,73.80
2018-01-21T20:31:11.214Z,75.50
2018-01-21T20:33:38.070Z,75.50
2018-01-21T20:36:04.921Z,74.40
2018-01-21T20:38:31.809Z,71.50
2018-01-21T20:40:59.404Z,70.00
2018-01-21T20:46:00.202Z,68.90
2018-01-21T20:48:27.571Z,67.20
2018-01-21T20:51:00.615Z,65.10
2018-01-21T20:53:34.373Z,64.80
2018-01-21T20:56:02.006Z,66.50
2018-01-21T20:58:28.906Z,66.40
2018-01-21T21:00:55.785Z,66.60
2018-01-21T21:03:22.641Z,66.60
2018-01-21T21:05:49.515Z,66.40
2018-01-21T21:08:16.501Z,66.50
2018-01-21T21:10:43.782Z,65.70
2018-01-21T21:13:11.574Z,64.10
2018-01-21T21:15:39.407Z,65.20
2018-01-21T21:18:06.362Z,65.20
2018-01-21T21:20:33.241Z,65.50
2018-01-21T21:23:00.857Z,65.20
2018-01-21T21:25:27.701Z,65.10
2018-01-21T21:27:54.922Z,65.00
2018-01-21T21:30:21.838Z,65.10
2018-01-21T21:32:48.686Z,65.20
2018-01-21T21:35:16.331Z,66.60
2018-01-21T21:37:43.325Z,66.60
2018-01-21T21:40:10.178Z,67.50
2018-01-21T21:42:37.153Z,68.10
2018-01-21T21:45:04.786Z,69.00
2018-01-21T21:47:32.855Z,69.10
2018-01-21T21:49:59.811Z,68.90
2018-01-21T21:52:26.697Z,69.60
2018-01-21T21:54:53.562Z,69.70
2018-01-21T21:57:20.441Z,70.00
2018-01-21T21:59:47.322Z,70.20
2018-01-21T22:02:14.914Z,70.80
2018-01-21T22:04:42.478Z,70.70
2018-01-21T22:07:09.350Z,70.60
2018-01-21T22:09:37.063Z,70.70
2018-01-21T22:12:03.890Z,70.70
2018-01-21T22:14:30.749Z,71.30
2018-01-21T22:16:58.346Z,70.40
2018-01-21T22:19:25.273Z,70.40
2018-01-21T22:21:52.114Z,69.90
2018-01-21T22:24:18.980Z,69.50
2018-01-21T22:26:45.861Z,70.50
2018-01-21T22:29:12.846Z,70.50
2018-01-21T22:31:39.730Z,70.70
2018-01-21T22:34:06.570Z,70.80
2018-01-21T22:36:33.402Z,71.00
2018-01-21T22:39:00.271Z,71.80
2018-01-21T22:41:27.101Z,71.70
2018-01-21T22:43:53.949Z,71.50
2018-01-21T22:46:20.762Z,72.10
2018-01-21T22:48:47.694Z,71.80
2018-01-21T22:51:14.566Z,72.50
2018-01-21T22:53:41.487Z,72.60
2018-01-21T22:56:08.310Z,72.30
2018-01-21T22:58:35.940Z,72.90
2018-01-21T23:01:02.814Z,72.90
2018-01-21T23:03:30.414Z,72.00
2018-01-21T23:05:57.270Z,71.90
2018-01-21T23:08:24.984Z,71.70
2018-01-21T23:10:51.812Z,71.70
2018-01-21T23:13:19.433Z,71.80
2018-01-21T23:15:46.303Z,71.70
2018-01-21T23:18:13.381Z,72.30
2018-01-21T23:20:52.477Z,71.70
2018-01-21T23:23:19.398Z,71.10
2018-01-21T23:25:46.240Z,71.40
2018-01-21T23:28:13.111Z,71.60
2018-01-21T23:30:39.983Z,71.60
2018-01-21T23:33:06.857Z,71.30
2018-01-21T23:35:33.709Z,70.70
2018-01-21T23:38:00.645Z,71.20
2018-01-21T23:40:27.530Z,71.20
2018-01-21T23:42:54.400Z,71.50
2018-01-21T23:45:21.318Z,71.20
2018-01-21T23:47:48.266Z,70.40
2018-01-21T23:50:15.280Z,68.50
2018-01-21T23:52:42.154Z,70.20
2018-01-21T23:55:08.994Z,70.60
2018-01-21T23:57:36.779Z,66.80
